createdAt,value
2018-07-09T18:10:49.544Z,28.80
2018-07-09T18:15:05.815Z,29.30
2018-07-09T18:17:35.372Z,29.50
2018-07-09T18:20:04.993Z,29.40
2018-07-09T18:22:34.544Z,29.10
2018-07-09T18:25:04.244Z,28.70
2018-07-09T18:27:33.984Z,28.20
2018-07-09T18:30:03.720Z,27.70
2018-07-09T18:32:33.281Z,27.30
2018-07-09T18:35:02.851Z,27.00
2018-07-09T18:37:32.503Z,26.70
2018-07-09T18:40:02.036Z,26.50
2018-07-09T18:42:31.564Z,26.20
2018-07-09T18:45:01.124Z,26.00
2018-07-09T18:47:30.640Z,25.60
2018-07-09T18:50:00.228Z,25.40
2018-07-09T18:52:30.259Z,25.10
2018-07-09T18:54:59.831Z,24.90
2018-07-09T18:57:29.368Z,24.60
2018-07-09T18:59:58.928Z,24.30
2018-07-09T19:02:28.507Z,24.20
2018-07-09T19:04:58.111Z,24.10
2018-07-09T19:07:27.560Z,24.00
2018-07-09T19:09:57.307Z,23.90
2018-07-09T19:12:41.295Z,23.80
2018-07-09T19:15:10.888Z,23.80
2018-07-09T19:18:00.395Z,23.70
2018-07-09T19:20:40.678Z,23.50
2018-07-09T19:23:09.261Z,23.30
2018-07-09T19:25:37.903Z,23.00
2018-07-09T19:28:07.132Z,22.90
2018-07-09T19:30:35.012Z,22.90
2018-07-09T19:33:02.891Z,22.80
2018-07-09T19:35:30.795Z,22.80
2018-07-09T19:37:58.946Z,22.80
2018-07-09T19:40:26.494Z,22.70
2018-07-09T19:42:54.348Z,22.60
2018-07-09T19:45:22.225Z,22.40
2018-07-09T19:47:50.086Z,22.30
2018-07-09T19:50:17.923Z,22.20
2018-07-09T19:52:45.744Z,21.90
2018-07-09T19:55:13.596Z,21.80
2018-07-09T19:57:41.468Z,21.80
2018-07-09T20:00:09.343Z,21.80
2018-07-09T20:02:37.187Z,21.70
2018-07-09T20:05:05.094Z,21.60
2018-07-09T20:07:32.943Z,21.60
2018-07-09T20:10:05.824Z,21.50
2018-07-09T20:12:38.680Z,21.50
2018-07-09T20:15:11.637Z,21.40
2018-07-09T20:17:43.341Z,21.30
2018-07-09T20:20:11.140Z,21.30
2018-07-09T20:22:38.971Z,21.30
2018-07-09T20:25:06.811Z,21.20
2018-07-09T20:27:34.608Z,21.20
2018-07-09T20:30:02.491Z,21.10
2018-07-09T20:32:30.336Z,21.00
2018-07-09T20:34:58.156Z,21.00
2018-07-09T20:37:26.060Z,21.00
2018-07-09T20:39:53.946Z,20.90
2018-07-09T20:42:21.843Z,20.90
2018-07-09T20:44:49.683Z,20.90
2018-07-09T20:47:17.620Z,20.90
2018-07-09T20:49:45.465Z,20.90
2018-07-09T20:52:13.314Z,20.90
2018-07-09T20:54:41.188Z,20.90
2018-07-09T20:57:09.080Z,20.90
2018-07-09T20:59:36.927Z,20.80
2018-07-09T21:02:04.844Z,20.80
2018-07-09T21:04:33.276Z,20.80
2018-07-09T21:07:02.359Z,20.70
2018-07-09T21:09:30.925Z,20.70
2018-07-09T21:11:59.397Z,20.70
2018-07-09T21:14:27.200Z,20.70
2018-07-09T21:16:55.040Z,20.70
2018-07-09T21:19:22.892Z,20.70
2018-07-09T21:21:50.735Z,20.70
2018-07-09T21:24:18.581Z,20.70
2018-07-09T21:26:46.435Z,20.70
2018-07-09T21:29:14.284Z,20.70
2018-07-09T21:31:42.132Z,20.60
2018-07-09T21:34:09.996Z,20.60
2018-07-09T21:36:37.887Z,20.50
2018-07-09T21:39:05.943Z,20.50
2018-07-09T21:41:33.788Z,20.40
2018-07-09T21:44:01.611Z,20.30
2018-07-09T21:46:29.467Z,20.20
2018-07-09T21:48:57.312Z,20.20
2018-07-09T21:51:25.159Z,20.10
2018-07-09T21:53:53.004Z,20.10
2018-07-09T21:56:20.880Z,20.00
2018-07-09T21:58:48.706Z,20.00
2018-07-09T22:01:16.545Z,20.00
2018-07-09T22:03:44.375Z,20.00
2018-07-09T22:06:12.188Z,19.90
2018-07-09T22:08:39.999Z,19.90
2018-07-09T22:11:07.796Z,19.90
2018-07-09T22:13:35.616Z,19.80
2018-07-09T22:16:03.422Z,19.70
2018-07-09T22:18:31.240Z,19.70
2018-07-09T22:20:59.104Z,19.60
2018-07-09T22:23:26.943Z,19.60
2018-07-09T22:25:54.787Z,19.60
2018-07-09T22:28:22.651Z,19.60
2018-07-09T22:30:52.297Z,19.60
2018-07-09T22:33:21.867Z,19.60
2018-07-09T22:35:51.431Z,19.60
2018-07-09T22:38:20.992Z,19.70
2018-07-09T22:40:50.572Z,19.70
2018-07-09T22:43:30.688Z,19.60
2018-07-09T22:46:00.252Z,19.60
2018-07-09T22:48:29.836Z,19.60
2018-07-09T22:50:59.702Z,19.50
2018-07-09T22:53:29.188Z,19.50
2018-07-09T22:56:12.455Z,19.50
2018-07-09T22:58:42.816Z,19.40
2018-07-09T23:01:12.343Z,19.40
2018-07-09T23:03:41.831Z,19.30
2018-07-09T23:06:11.342Z,19.20
2018-07-09T23:08:40.786Z,19.10
2018-07-09T23:11:20.900Z,19.10
2018-07-09T23:15:00.530Z,19.00
2018-07-09T23:17:40.653Z,18.90
2018-07-09T23:20:21.129Z,18.90
2018-07-09T23:22:48.952Z,18.90
2018-07-09T23:25:16.731Z,18.80
2018-07-09T23:27:44.506Z,18.80
2018-07-09T23:30:12.305Z,18.80
2018-07-09T23:32:40.085Z,18.70
2018-07-09T23:35:07.905Z,18.60
2018-07-09T23:37:35.677Z,18.50
2018-07-09T23:40:03.458Z,18.40
2018-07-09T23:42:31.606Z,18.40
2018-07-09T23:44:59.433Z,18.30
2018-07-09T23:47:27.274Z,18.20
2018-07-09T23:53:25.397Z,18.10
2018-07-09T23:58:05.614Z,18.00
